createdAt,value
2019-05-01T00:01:09.851Z,13.17
2019-05-01T00:02:42.214Z,11.30
2019-05-01T00:04:14.694Z,11.83
2019-05-01T00:05:47.103Z,12.27
2019-05-01T00:07:19.440Z,11.27
2019-05-01T00:08:51.803Z,11.80
2019-05-01T00:10:24.508Z,11.63
2019-05-01T00:11:56.873Z,11.43
2019-05-01T00:13:29.310Z,10.77
2019-05-01T00:15:01.796Z,11.00
2019-05-01T00:16:34.203Z,11.53
2019-05-01T00:18:06.547Z,11.57
2019-05-01T00:19:38.915Z,11.87
2019-05-01T00:21:11.263Z,12.00
2019-05-01T00:22:43.748Z,11.03
2019-05-01T00:24:16.177Z,12.40
2019-05-01T00:25:48.604Z,10.83
2019-05-01T00:27:21.088Z,11.23
2019-05-01T00:28:53.596Z,11.37
2019-05-01T00:30:30.155Z,11.97
2019-05-01T00:32:00.036Z,10.67
2019-05-01T00:33:32.458Z,11.63
2019-05-01T00:35:04.795Z,11.70
2019-05-01T00:36:37.199Z,10.37
2019-05-01T00:38:09.687Z,11.03
2019-05-01T00:39:42.106Z,11.07
2019-05-01T00:41:14.543Z,11.10
2019-05-01T00:42:46.955Z,11.07
2019-05-01T00:44:19.302Z,10.83
2019-05-01T00:45:51.727Z,10.90
2019-05-01T00:47:24.211Z,11.00
2019-05-01T00:48:56.575Z,11.10
2019-05-01T00:50:28.975Z,10.47
2019-05-01T00:52:01.335Z,10.83
2019-05-01T00:53:33.754Z,11.70
2019-05-01T00:55:06.268Z,10.80
2019-05-01T00:56:38.680Z,11.13
2019-05-01T00:58:11.087Z,11.83
2019-05-01T00:59:43.519Z,11.00
2019-05-01T01:01:15.935Z,11.13
2019-05-01T01:02:48.275Z,10.57
2019-05-01T01:04:20.698Z,10.93
2019-05-01T01:05:53.032Z,11.80
2019-05-01T01:09:27.180Z,10.57
2019-05-01T01:10:59.516Z,10.67
2019-05-01T01:12:31.876Z,10.93
2019-05-01T01:14:04.308Z,10.93
2019-05-01T01:15:36.723Z,10.27
2019-05-01T01:17:09.134Z,10.57
2019-05-01T01:18:41.538Z,10.63
2019-05-01T01:20:14.056Z,10.50
2019-05-01T01:21:46.464Z,10.23
2019-05-01T01:23:18.811Z,10.80
2019-05-01T01:24:51.225Z,10.67
2019-05-01T01:26:23.643Z,10.47
2019-05-01T01:27:55.992Z,11.20
2019-05-01T01:29:28.407Z,10.13
2019-05-01T01:31:00.824Z,10.73
2019-05-01T01:32:33.165Z,9.63
2019-05-01T01:34:05.575Z,9.97
2019-05-01T01:35:37.998Z,9.80
2019-05-01T01:37:10.331Z,9.50
2019-05-01T01:38:42.757Z,9.73
2019-05-01T01:40:15.170Z,10.33
2019-05-01T01:41:47.509Z,11.10
2019-05-01T01:43:19.922Z,9.87
2019-05-01T01:44:52.420Z,10.77
2019-05-01T01:46:24.781Z,9.90
2019-05-01T01:47:57.179Z,10.30
2019-05-01T01:49:29.558Z,10.43
2019-05-01T01:51:01.906Z,9.93
2019-05-01T01:52:34.238Z,9.83
2019-05-01T01:54:06.658Z,9.53
2019-05-01T01:55:39.019Z,10.60
2019-05-01T01:57:11.420Z,10.77
2019-05-01T01:58:43.833Z,9.33
2019-05-01T02:00:16.191Z,9.80
2019-05-01T02:01:48.593Z,9.17
2019-05-01T02:03:20.994Z,9.57
2019-05-01T02:04:53.395Z,10.37
2019-05-01T02:06:25.811Z,10.40
2019-05-01T02:07:58.147Z,9.50
2019-05-01T02:09:30.556Z,9.87
2019-05-01T02:11:03.360Z,9.40
2019-05-01T02:12:35.755Z,10.23
2019-05-01T02:14:08.088Z,9.30
2019-05-01T02:15:40.514Z,9.90
2019-05-01T02:17:12.984Z,9.60
2019-05-01T02:18:45.312Z,9.03
2019-05-01T02:20:17.680Z,10.40
2019-05-01T02:21:50.179Z,9.90
2019-05-01T02:23:22.612Z,9.37
2019-05-01T02:24:55.040Z,9.80
2019-05-01T02:26:27.557Z,10.23
2019-05-01T02:27:59.883Z,8.47
2019-05-01T02:29:32.283Z,9.73
2019-05-01T02:31:04.731Z,10.00
2019-05-01T02:32:37.094Z,8.60
2019-05-01T02:34:09.492Z,10.10
2019-05-01T02:35:41.831Z,9.70
2019-05-01T02:37:14.179Z,9.70
2019-05-01T02:38:46.988Z,9.77
2019-05-01T02:40:19.386Z,9.47
2019-05-01T02:41:51.840Z,9.83
2019-05-01T02:43:24.252Z,8.33
2019-05-01T02:44:56.748Z,9.10
2019-05-01T02:46:29.114Z,9.90
2019-05-01T02:48:01.581Z,10.17
2019-05-01T02:49:34.060Z,9.37
2019-05-01T02:51:06.437Z,10.03
2019-05-01T02:52:38.884Z,8.77
2019-05-01T02:54:11.280Z,8.67
2019-05-01T02:55:43.708Z,9.43
2019-05-01T02:57:16.110Z,9.30
2019-05-01T02:58:48.581Z,10.30
2019-05-01T03:00:20.988Z,9.80
2019-05-01T03:01:53.464Z,9.13
2019-05-01T03:03:25.888Z,10.13
2019-05-01T03:04:58.301Z,8.87
2019-05-01T03:06:30.879Z,8.50
2019-05-01T03:08:03.481Z,9.80
2019-05-01T03:09:35.888Z,9.33
2019-05-01T03:11:08.292Z,9.23
2019-05-01T03:12:40.685Z,8.97
2019-05-01T03:14:13.102Z,8.67
2019-05-01T03:15:45.505Z,9.73
2019-05-01T03:17:18.004Z,8.93
2019-05-01T03:18:50.450Z,8.77
2019-05-01T03:20:23.112Z,9.33
2019-05-01T03:21:55.622Z,9.20
2019-05-01T03:23:28.049Z,9.50
2019-05-01T03:25:00.527Z,9.07
2019-05-01T03:26:32.999Z,8.00
2019-05-01T03:28:06.423Z,8.83
2019-05-01T03:29:38.842Z,8.93
2019-05-01T03:31:11.319Z,8.77
2019-05-01T03:32:43.724Z,9.10
2019-05-01T03:34:16.247Z,8.40
2019-05-01T03:35:48.736Z,8.40
2019-05-01T03:37:21.198Z,8.60
2019-05-01T03:38:53.689Z,8.03
2019-05-01T03:40:26.091Z,8.53
2019-05-01T03:41:58.507Z,8.77
2019-05-01T03:43:30.977Z,8.97
2019-05-01T03:45:03.494Z,8.60
2019-05-01T03:46:35.908Z,7.80
2019-05-01T03:48:08.311Z,8.67
2019-05-01T03:49:40.814Z,8.97
2019-05-01T03:51:13.231Z,7.40
2019-05-01T03:52:45.709Z,8.37
2019-05-01T03:54:18.197Z,8.70
2019-05-01T03:55:50.532Z,8.30
2019-05-01T03:57:22.939Z,8.10
2019-05-01T03:58:55.435Z,8.23
2019-05-01T04:00:27.862Z,7.93
2019-05-01T04:02:00.337Z,8.77
2019-05-01T04:03:32.859Z,7.83
2019-05-01T04:05:05.284Z,8.67
2019-05-01T04:06:37.683Z,8.73
2019-05-01T04:08:10.091Z,8.43
2019-05-01T04:09:42.443Z,9.53
2019-05-01T04:11:14.913Z,8.77
2019-05-01T04:12:47.287Z,8.30
2019-05-01T04:14:19.791Z,8.50
2019-05-01T04:15:52.892Z,8.97
2019-05-01T04:17:25.305Z,8.33
2019-05-01T04:18:57.715Z,8.07
2019-05-01T04:20:30.205Z,8.37
2019-05-01T04:22:02.610Z,8.10
2019-05-01T04:23:35.077Z,8.30
2019-05-01T04:25:07.504Z,7.53
2019-05-01T04:26:40.176Z,8.27
2019-05-01T04:28:12.514Z,9.03
2019-05-01T04:29:44.994Z,8.37
2019-05-01T04:31:17.490Z,7.90
2019-05-01T04:32:52.763Z,8.37
2019-05-01T04:34:23.913Z,9.30
2019-05-01T04:35:56.404Z,8.87
2019-05-01T04:37:28.743Z,8.53
2019-05-01T04:39:01.393Z,9.10
2019-05-01T04:40:33.957Z,8.20
2019-05-01T04:42:06.371Z,8.43
2019-05-01T04:43:38.845Z,8.17
2019-05-01T04:45:11.334Z,8.47
2019-05-01T04:46:43.839Z,8.30
2019-05-01T04:48:16.303Z,8.67
2019-05-01T04:49:48.729Z,8.77
2019-05-01T04:51:21.260Z,9.07
2019-05-01T04:52:53.733Z,8.17
2019-05-01T04:54:26.062Z,8.87
2019-05-01T04:55:58.415Z,9.43
2019-05-01T04:57:30.820Z,8.27
2019-05-01T04:59:03.220Z,8.57
2019-05-01T05:00:35.654Z,8.80
2019-05-01T05:02:08.055Z,8.87
2019-05-01T05:03:40.455Z,8.50
2019-05-01T05:05:12.791Z,8.77
2019-05-01T05:06:45.351Z,8.97
2019-05-01T05:08:17.839Z,8.93
2019-05-01T05:09:50.235Z,9.17
2019-05-01T05:11:22.684Z,8.87
2019-05-01T05:12:55.082Z,8.63
2019-05-01T05:14:27.431Z,8.13
2019-05-01T05:16:02.244Z,9.30
2019-05-01T05:17:34.248Z,9.07
2019-05-01T05:19:06.713Z,8.53
2019-05-01T05:20:39.400Z,8.17
2019-05-01T05:22:11.860Z,9.70
2019-05-01T05:23:44.197Z,8.77
2019-05-01T05:25:16.664Z,8.70
2019-05-01T05:26:49.090Z,9.00
2019-05-01T05:28:21.428Z,8.73
2019-05-01T05:29:53.931Z,8.30
2019-05-01T05:31:26.434Z,9.47
2019-05-01T05:32:58.760Z,9.40
2019-05-01T05:34:31.164Z,8.47
2019-05-01T05:36:03.565Z,9.37
2019-05-01T05:37:35.995Z,10.30
2019-05-01T05:39:08.334Z,9.03
2019-05-01T05:40:40.809Z,10.07
2019-05-01T05:42:13.224Z,9.00
2019-05-01T05:43:45.561Z,8.97
2019-05-01T05:45:17.958Z,9.20
2019-05-01T05:46:50.314Z,8.27
2019-05-01T05:48:22.652Z,9.57
2019-05-01T05:49:55.055Z,9.40
2019-05-01T05:51:27.398Z,8.37
2019-05-01T05:52:59.882Z,9.07
2019-05-01T05:54:32.280Z,9.23
2019-05-01T05:56:04.612Z,9.27
2019-05-01T05:57:36.963Z,9.53
2019-05-01T05:59:09.362Z,9.67
2019-05-01T06:00:41.703Z,9.40
2019-05-01T06:02:14.101Z,9.43
2019-05-01T06:03:46.616Z,9.60
2019-05-01T06:05:18.954Z,10.50
2019-05-01T06:06:51.433Z,10.40
2019-05-01T06:08:23.849Z,9.23
2019-05-01T06:09:56.175Z,9.53
2019-05-01T06:11:29.811Z,9.67
2019-05-01T06:13:02.679Z,10.70
2019-05-01T06:14:35.023Z,10.83
2019-05-01T06:16:07.427Z,9.47
2019-05-01T06:17:40.003Z,10.20
2019-05-01T06:19:14.611Z,9.73
2019-05-01T06:20:46.397Z,10.23
2019-05-01T06:22:18.811Z,11.00
2019-05-01T06:23:52.808Z,11.00
2019-05-01T06:25:25.569Z,10.13
2019-05-01T06:26:58.006Z,10.37
2019-05-01T06:28:30.347Z,10.90
2019-05-01T06:30:06.516Z,10.67
2019-05-01T06:31:36.887Z,11.40
2019-05-01T06:33:09.729Z,11.03
2019-05-01T06:34:43.367Z,11.13
2019-05-01T06:36:15.781Z,10.60
2019-05-01T06:37:48.133Z,11.03
2019-05-01T06:39:21.025Z,11.30
2019-05-01T06:40:58.293Z,11.67
2019-05-01T06:42:30.489Z,10.80
2019-05-01T06:44:04.133Z,10.07
2019-05-01T06:45:37.100Z,10.27
2019-05-01T06:47:09.485Z,10.63
2019-05-01T06:48:41.896Z,10.80
2019-05-01T06:50:14.395Z,11.00
2019-05-01T06:51:48.080Z,11.27
2019-05-01T06:53:20.856Z,10.50
2019-05-01T06:54:53.636Z,10.93
2019-05-01T06:56:26.188Z,10.87
2019-05-01T06:57:58.691Z,9.90
2019-05-01T06:59:33.190Z,10.63
2019-05-01T07:01:05.158Z,10.13
2019-05-01T07:02:37.566Z,10.63
2019-05-01T07:04:09.983Z,11.30
2019-05-01T07:05:44.608Z,10.10
2019-05-01T07:07:24.997Z,11.40
2019-05-01T07:08:50.547Z,10.43
2019-05-01T07:10:30.575Z,9.90
2019-05-01T07:11:57.102Z,10.53
2019-05-01T07:13:29.564Z,10.40
2019-05-01T07:15:01.990Z,10.93
2019-05-01T07:16:38.113Z,10.30
2019-05-01T07:18:11.372Z,9.40
2019-05-01T07:19:42.734Z,10.40
2019-05-01T07:21:15.438Z,10.33
2019-05-01T07:22:47.856Z,9.73
2019-05-01T07:24:24.223Z,10.30
2019-05-01T07:25:54.399Z,10.70
2019-05-01T07:27:26.885Z,9.83
2019-05-01T07:28:59.219Z,10.60
2019-05-01T07:30:31.631Z,10.63
2019-05-01T07:32:06.393Z,10.13
2019-05-01T07:33:38.140Z,9.47
2019-05-01T07:35:10.646Z,9.70
2019-05-01T07:36:45.661Z,10.07
2019-05-01T07:38:17.107Z,10.00
2019-05-01T07:39:51.460Z,10.77
2019-05-01T07:41:23.636Z,10.63
2019-05-01T07:42:56.044Z,9.73
2019-05-01T07:44:30.012Z,10.10
2019-05-01T07:46:02.576Z,10.90
2019-05-01T07:47:34.982Z,10.10
2019-05-01T07:49:07.413Z,9.40
2019-05-01T07:50:39.814Z,10.30
2019-05-01T07:52:12.483Z,9.83
2019-05-01T07:53:46.238Z,10.57
2019-05-01T07:55:20.074Z,10.10
2019-05-01T07:56:52.667Z,10.13
2019-05-01T07:58:25.106Z,10.67
2019-05-01T07:59:58.380Z,10.00
2019-05-01T08:01:31.624Z,9.97
2019-05-01T08:03:07.291Z,9.70
2019-05-01T08:04:38.295Z,9.83
2019-05-01T08:06:10.698Z,10.23
2019-05-01T08:07:43.137Z,9.97
2019-05-01T08:09:16.476Z,9.33
2019-05-01T08:10:49.039Z,10.73
2019-05-01T08:12:23.944Z,10.03
2019-05-01T08:14:07.060Z,9.77
2019-05-01T08:15:32.508Z,10.10
2019-05-01T08:17:03.960Z,11.00
2019-05-01T08:18:36.481Z,9.87
2019-05-01T08:20:09.910Z,10.50
2019-05-01T08:21:42.995Z,10.57
2019-05-01T08:23:15.768Z,10.20
2019-05-01T08:24:48.136Z,10.47
2019-05-01T08:26:20.603Z,11.00
2019-05-01T08:27:56.349Z,10.73
2019-05-01T08:29:27.101Z,10.20
2019-05-01T08:30:59.579Z,10.17
2019-05-01T08:32:33.904Z,10.33
2019-05-01T08:34:06.018Z,10.00
2019-05-01T08:35:38.514Z,9.70
2019-05-01T08:37:10.859Z,10.67
2019-05-01T08:38:43.203Z,9.93
2019-05-01T08:40:15.950Z,10.27
2019-05-01T08:41:49.784Z,9.67
2019-05-01T08:43:22.156Z,10.87
2019-05-01T08:44:54.575Z,10.50
2019-05-01T08:46:27.213Z,10.17
2019-05-01T08:48:00.426Z,9.43
2019-05-01T08:49:33.843Z,9.87
2019-05-01T08:51:06.368Z,8.87
2019-05-01T08:52:42.773Z,9.17
2019-05-01T08:54:12.817Z,8.63
2019-05-01T08:55:47.065Z,9.10
2019-05-01T08:57:19.287Z,8.70
2019-05-01T08:58:51.648Z,9.30
2019-05-01T09:00:24.240Z,8.47
2019-05-01T09:02:09.057Z,8.97
2019-05-01T09:05:33.944Z,9.70
2019-05-01T09:07:05.081Z,9.60
2019-05-01T09:08:37.488Z,9.53
2019-05-01T09:10:09.911Z,9.33
2019-05-01T09:11:42.525Z,8.93
2019-05-01T09:13:18.855Z,8.53
2019-05-01T09:14:51.205Z,8.80
2019-05-01T09:16:23.446Z,8.93
2019-05-01T09:17:57.193Z,8.70
2019-05-01T09:19:29.611Z,8.73
2019-05-01T09:21:02.152Z,8.50
2019-05-01T09:22:34.871Z,9.07
2019-05-01T09:24:07.223Z,8.83
2019-05-01T09:25:39.725Z,9.87
2019-05-01T09:27:12.346Z,9.03
2019-05-01T09:28:44.779Z,8.07
2019-05-01T09:30:17.143Z,7.70
2019-05-01T09:31:49.583Z,7.77
2019-05-01T09:33:21.919Z,8.93
2019-05-01T09:34:54.411Z,7.63
2019-05-01T09:36:26.856Z,7.97
2019-05-01T09:37:59.374Z,8.53
2019-05-01T09:39:32.160Z,8.63
2019-05-01T09:41:04.587Z,7.97
2019-05-01T09:42:37.026Z,8.80
2019-05-01T09:44:10.682Z,10.57
2019-05-01T09:45:43.570Z,9.40
2019-05-01T09:47:15.950Z,10.33
2019-05-01T09:48:48.362Z,8.97
2019-05-01T09:50:20.938Z,9.40
2019-05-01T09:51:53.357Z,10.40
2019-05-01T09:53:29.758Z,9.67
2019-05-01T09:54:59.891Z,10.03
2019-05-01T09:56:32.306Z,10.27
2019-05-01T09:58:04.852Z,9.23
2019-05-01T09:59:37.259Z,9.47
2019-05-01T10:01:09.608Z,8.67
2019-05-01T10:02:43.820Z,8.63
2019-05-01T10:04:16.091Z,9.63
2019-05-01T10:05:48.505Z,8.47
2019-05-01T10:07:23.821Z,9.17
2019-05-01T10:08:55.045Z,8.67
2019-05-01T10:10:30.621Z,9.33
2019-05-01T10:12:03.231Z,8.60
2019-05-01T10:13:35.823Z,9.17
2019-05-01T10:15:08.316Z,9.67
2019-05-01T10:16:40.699Z,8.57
2019-05-01T10:18:13.180Z,9.27
2019-05-01T10:19:46.011Z,9.17
2019-05-01T10:21:22.344Z,9.70
2019-05-01T10:22:52.416Z,9.40
2019-05-01T10:24:24.942Z,9.17
2019-05-01T10:25:57.356Z,8.03
2019-05-01T10:27:30.976Z,7.43
2019-05-01T10:29:04.040Z,7.70
2019-05-01T10:30:37.557Z,7.60
2019-05-01T10:32:09.989Z,7.97
2019-05-01T10:33:42.481Z,9.40
2019-05-01T10:35:19.308Z,7.93
2019-05-01T10:36:49.885Z,8.40
2019-05-01T10:38:23.908Z,7.57
2019-05-01T10:39:57.476Z,7.93
2019-05-01T10:41:29.947Z,7.67
2019-05-01T10:43:02.364Z,7.93
2019-05-01T10:44:34.708Z,8.87
2019-05-01T10:46:07.264Z,7.83
2019-05-01T10:47:39.725Z,8.60
2019-05-01T10:49:12.136Z,8.30
2019-05-01T10:50:44.562Z,8.30
2019-05-01T10:52:16.989Z,8.77
2019-05-01T10:53:49.484Z,8.87
2019-05-01T10:55:21.982Z,9.33
2019-05-01T10:56:54.455Z,8.80
2019-05-01T10:58:26.807Z,8.30
2019-05-01T10:59:59.200Z,8.93
2019-05-01T11:01:31.838Z,8.97
2019-05-01T11:03:04.408Z,9.07
2019-05-01T11:04:39.813Z,8.20
2019-05-01T11:06:12.176Z,9.13
2019-05-01T11:07:44.584Z,8.10
2019-05-01T11:09:17.000Z,8.43
2019-05-01T11:10:49.542Z,8.17
2019-05-01T11:12:21.912Z,7.93
2019-05-01T11:13:54.315Z,8.20
2019-05-01T11:15:26.718Z,7.60
2019-05-01T11:16:59.099Z,8.20
2019-05-01T11:18:31.535Z,7.67
2019-05-01T11:20:04.040Z,7.67
2019-05-01T11:21:36.405Z,7.70
2019-05-01T11:23:08.758Z,7.40
2019-05-01T11:24:41.163Z,7.27
2019-05-01T11:26:13.606Z,7.80
2019-05-01T11:27:45.964Z,7.83
2019-05-01T11:29:18.359Z,7.27
2019-05-01T11:30:50.698Z,7.33
2019-05-01T11:32:23.123Z,7.27
2019-05-01T11:33:55.562Z,8.13
2019-05-01T11:35:28.016Z,8.00
2019-05-01T11:37:00.509Z,7.70
2019-05-01T11:38:32.939Z,7.80
2019-05-01T11:40:05.275Z,7.80
2019-05-01T11:41:37.707Z,7.85
2019-05-01T11:43:10.168Z,7.95
2019-05-01T11:44:42.587Z,7.83
2019-05-01T11:46:15.063Z,7.80
2019-05-01T11:47:47.930Z,7.40
2019-05-01T11:49:20.264Z,7.85
2019-05-01T11:50:52.752Z,7.72
2019-05-01T11:52:25.430Z,7.05
2019-05-01T11:54:02.320Z,7.40
2019-05-01T11:55:34.816Z,7.22
2019-05-01T11:57:07.364Z,6.45
2019-05-01T11:58:39.722Z,7.55
2019-05-01T12:00:13.463Z,7.45
2019-05-01T12:01:45.982Z,7.80
2019-05-01T12:03:18.352Z,7.05
2019-05-01T12:04:50.684Z,7.58
2019-05-01T12:06:23.437Z,7.65
2019-05-01T12:07:56.207Z,8.10
2019-05-01T12:09:28.813Z,7.85
2019-05-01T12:11:01.216Z,7.15
2019-05-01T12:12:33.585Z,7.12
2019-05-01T12:14:06.078Z,8.78
2019-05-01T12:15:38.479Z,7.95
2019-05-01T12:17:10.876Z,7.87
2019-05-01T12:18:45.224Z,7.78
2019-05-01T12:20:17.776Z,8.05
2019-05-01T12:21:50.192Z,8.60
2019-05-01T12:23:22.619Z,8.08
2019-05-01T12:24:55.021Z,6.97
2019-05-01T12:26:27.427Z,8.28
2019-05-01T12:27:59.781Z,7.60
2019-05-01T12:29:32.231Z,8.40
2019-05-01T12:31:04.705Z,7.72
2019-05-01T12:32:37.131Z,7.92
2019-05-01T12:34:09.627Z,7.90
2019-05-01T12:35:42.444Z,8.45
2019-05-01T12:37:14.857Z,8.23
2019-05-01T12:38:47.454Z,8.90
2019-05-01T12:40:19.955Z,9.55
2019-05-01T12:41:52.931Z,8.23
2019-05-01T12:43:25.408Z,7.10
2019-05-01T12:44:58.027Z,8.38
2019-05-01T12:46:30.468Z,7.12
2019-05-01T12:48:02.883Z,7.55
2019-05-01T12:49:35.420Z,7.87
2019-05-01T12:51:07.865Z,7.33
2019-05-01T12:52:40.324Z,6.42
2019-05-01T12:54:12.654Z,7.40
2019-05-01T12:55:45.017Z,7.15
2019-05-01T12:57:17.500Z,7.55
2019-05-01T12:58:49.993Z,7.10
2019-05-01T13:00:22.347Z,6.95
2019-05-01T13:01:54.679Z,6.83
2019-05-01T13:03:27.015Z,6.90
2019-05-01T13:04:59.348Z,6.47
2019-05-01T13:06:31.855Z,5.58
2019-05-01T13:08:04.264Z,7.30
2019-05-01T13:09:36.686Z,6.50
2019-05-01T13:11:09.201Z,7.08
2019-05-01T13:12:41.699Z,6.87
2019-05-01T13:14:14.043Z,6.83
2019-05-01T13:15:46.401Z,6.60
2019-05-01T13:17:18.897Z,6.85
2019-05-01T13:18:51.303Z,7.90
2019-05-01T13:20:23.748Z,6.97
2019-05-01T13:21:56.180Z,6.28
2019-05-01T13:23:28.508Z,6.70
2019-05-01T13:25:00.869Z,5.12
2019-05-01T13:26:33.281Z,6.25
2019-05-01T13:28:05.640Z,7.58
2019-05-01T13:29:37.978Z,7.40
2019-05-01T13:31:10.409Z,6.80
2019-05-01T13:32:42.834Z,7.25
2019-05-01T13:34:16.881Z,7.22
2019-05-01T13:35:49.295Z,6.97
2019-05-01T13:37:21.763Z,7.15
2019-05-01T13:38:54.177Z,7.28
2019-05-01T13:40:26.672Z,7.42
2019-05-01T13:41:59.011Z,7.40
2019-05-01T13:43:31.429Z,7.40
2019-05-01T13:45:03.851Z,7.95
2019-05-01T13:46:36.228Z,7.15
2019-05-01T13:48:08.988Z,7.85
2019-05-01T13:49:41.762Z,7.62
2019-05-01T13:51:14.102Z,7.78
2019-05-01T13:52:46.531Z,7.92
2019-05-01T13:54:18.942Z,7.47
2019-05-01T13:55:51.282Z,7.42
2019-05-01T13:57:25.319Z,7.55
2019-05-01T13:58:57.736Z,7.65
2019-05-01T14:00:30.091Z,8.20
2019-05-01T14:02:02.499Z,7.90
2019-05-01T14:03:35.003Z,8.50
2019-05-01T14:05:07.460Z,8.28
2019-05-01T14:06:39.920Z,8.58
2019-05-01T14:08:12.345Z,8.75
2019-05-01T14:09:44.679Z,9.05
2019-05-01T14:11:17.081Z,8.10
2019-05-01T14:12:49.509Z,9.23
2019-05-01T14:14:21.951Z,8.73
2019-05-01T14:15:54.421Z,8.45
2019-05-01T14:17:27.123Z,8.38
2019-05-01T14:18:59.614Z,8.53
2019-05-01T14:20:32.089Z,7.60
2019-05-01T14:22:04.539Z,8.28
2019-05-01T14:23:36.961Z,7.53
2019-05-01T14:25:09.388Z,7.40
2019-05-01T14:26:41.888Z,7.78
2019-05-01T14:28:14.397Z,7.80
2019-05-01T14:29:46.778Z,8.63
2019-05-01T14:31:19.124Z,7.50
2019-05-01T14:32:51.781Z,7.65
2019-05-01T14:34:24.486Z,7.30
2019-05-01T14:35:56.961Z,7.08
2019-05-01T14:37:30.091Z,7.50
2019-05-01T14:39:02.687Z,7.40
2019-05-01T14:40:35.161Z,7.00
2019-05-01T14:42:07.486Z,6.60
2019-05-01T14:43:40.495Z,6.95
2019-05-01T14:45:12.842Z,7.08
2019-05-01T14:46:45.323Z,7.05
2019-05-01T14:48:17.873Z,7.67
2019-05-01T14:49:50.301Z,7.12
2019-05-01T14:51:22.766Z,7.28
2019-05-01T14:52:55.339Z,8.00
2019-05-01T14:54:27.678Z,7.60
2019-05-01T14:56:00.109Z,8.13
2019-05-01T14:57:32.617Z,7.65
2019-05-01T14:59:05.099Z,7.90
2019-05-01T15:00:37.509Z,8.00
2019-05-01T15:02:09.863Z,7.35
2019-05-01T15:03:42.287Z,7.75
2019-05-01T15:05:14.766Z,7.67
2019-05-01T15:06:47.123Z,7.17
2019-05-01T15:08:19.606Z,8.08
2019-05-01T15:09:51.955Z,7.53
2019-05-01T15:11:24.448Z,7.08
2019-05-01T15:12:56.871Z,7.75
2019-05-01T15:14:29.207Z,7.62
2019-05-01T15:16:01.784Z,7.65
2019-05-01T15:17:34.208Z,6.22
2019-05-01T15:19:06.575Z,7.35
2019-05-01T15:20:39.046Z,7.58
2019-05-01T15:22:11.392Z,7.12
2019-05-01T15:23:53.322Z,7.37
2019-05-01T15:25:17.836Z,6.58
2019-05-01T15:26:50.332Z,7.50
2019-05-01T15:28:22.768Z,8.33
2019-05-01T15:29:55.255Z,7.03
2019-05-01T15:31:27.802Z,7.72
2019-05-01T15:33:00.311Z,7.70
2019-05-01T15:34:33.024Z,7.85
2019-05-01T15:36:05.500Z,8.30
2019-05-01T15:37:37.855Z,7.92
2019-05-01T15:39:10.268Z,7.72
2019-05-01T15:40:42.612Z,8.50
2019-05-01T15:42:15.088Z,8.00
2019-05-01T15:43:47.507Z,7.42
2019-05-01T15:45:19.916Z,7.42
2019-05-01T15:46:52.248Z,7.90
2019-05-01T15:48:24.676Z,8.55
2019-05-01T15:49:57.007Z,7.80
2019-05-01T15:51:29.428Z,8.30
2019-05-01T15:53:01.835Z,8.45
2019-05-01T15:54:34.411Z,8.78
2019-05-01T15:56:06.834Z,8.78
2019-05-01T15:57:39.250Z,8.50
2019-05-01T15:59:11.615Z,8.98
2019-05-01T16:00:44.029Z,9.63
2019-05-01T16:02:16.516Z,8.68
2019-05-01T16:03:48.987Z,9.25
2019-05-01T16:05:21.396Z,10.20
2019-05-01T16:06:53.879Z,9.10
2019-05-01T16:08:26.364Z,9.73
2019-05-01T16:10:01.092Z,9.63
2019-05-01T16:11:33.661Z,9.10
2019-05-01T16:13:06.087Z,10.38
2019-05-01T16:14:38.431Z,9.83
2019-05-01T16:16:10.866Z,10.20
2019-05-01T16:17:43.348Z,9.38
2019-05-01T16:19:15.687Z,9.48
2019-05-01T16:20:48.115Z,10.03
2019-05-01T16:22:20.569Z,9.70
2019-05-01T16:23:52.908Z,8.78
2019-05-01T16:25:25.408Z,9.43
2019-05-01T16:26:57.783Z,10.90
2019-05-01T16:28:30.129Z,10.63
2019-05-01T16:30:02.540Z,9.68
2019-05-01T16:31:35.047Z,10.75
2019-05-01T16:33:07.464Z,8.80
2019-05-01T16:34:39.942Z,10.28
2019-05-01T16:36:12.669Z,9.15
2019-05-01T16:37:45.091Z,9.30
2019-05-01T16:39:17.500Z,9.28
2019-05-01T16:40:50.013Z,9.28
2019-05-01T16:42:22.355Z,9.83
2019-05-01T16:43:54.807Z,9.28
2019-05-01T16:45:27.235Z,8.65
2019-05-01T16:47:00.026Z,9.78
2019-05-01T16:48:32.467Z,9.28
2019-05-01T16:50:04.947Z,9.73
2019-05-01T16:51:37.332Z,9.53
2019-05-01T16:53:09.779Z,9.80
2019-05-01T16:54:42.405Z,10.18
2019-05-01T16:56:15.123Z,9.73
2019-05-01T16:57:47.543Z,9.85
2019-05-01T16:59:20.044Z,9.38
2019-05-01T17:00:52.384Z,9.45
2019-05-01T17:02:24.930Z,9.75
2019-05-01T17:03:57.416Z,9.05
2019-05-01T17:05:29.826Z,9.78
2019-05-01T17:07:02.273Z,9.95
2019-05-01T17:08:36.457Z,10.00
2019-05-01T17:10:08.969Z,9.23
2019-05-01T17:11:41.379Z,9.33
2019-05-01T17:13:14.219Z,10.23
2019-05-01T17:14:46.583Z,9.20
2019-05-01T17:16:20.555Z,10.07
2019-05-01T17:17:52.976Z,8.65
2019-05-01T17:19:25.524Z,9.38
2019-05-01T17:20:58.068Z,8.83
2019-05-01T17:22:30.572Z,9.40
2019-05-01T17:24:03.081Z,10.03
2019-05-01T17:25:35.419Z,9.23
2019-05-01T17:27:07.840Z,8.95
2019-05-01T17:28:40.285Z,8.98
2019-05-01T17:30:12.623Z,9.30
2019-05-01T17:31:45.221Z,8.58
2019-05-01T17:33:20.691Z,9.90
2019-05-01T17:34:51.751Z,10.65
2019-05-01T17:36:24.158Z,9.50
2019-05-01T17:37:56.522Z,11.35
2019-05-01T17:39:28.976Z,11.28
2019-05-01T17:41:01.390Z,10.90
2019-05-01T17:42:37.743Z,9.80
2019-05-01T17:44:08.122Z,10.05
2019-05-01T17:45:40.538Z,9.20
2019-05-01T17:47:13.229Z,10.35
2019-05-01T17:48:45.904Z,9.98
2019-05-01T17:50:21.145Z,9.80
2019-05-01T17:51:52.477Z,9.40
2019-05-01T17:53:24.974Z,11.18
2019-05-01T17:54:57.704Z,9.68
2019-05-01T17:56:30.218Z,9.65
2019-05-01T17:58:02.588Z,9.40
2019-05-01T17:59:35.235Z,9.23
2019-05-01T18:01:07.783Z,10.20
2019-05-01T18:02:41.920Z,9.55
2019-05-01T18:04:14.415Z,9.60
2019-05-01T18:05:46.756Z,9.65
2019-05-01T18:07:19.114Z,10.00
2019-05-01T18:09:02.497Z,9.18
2019-05-01T18:10:26.613Z,9.80
2019-05-01T18:11:59.602Z,9.98
2019-05-01T18:13:32.155Z,10.00
2019-05-01T18:15:06.260Z,9.40
2019-05-01T18:16:39.030Z,10.25
2019-05-01T18:18:14.989Z,10.38
2019-05-01T18:19:45.594Z,9.48
2019-05-01T18:21:36.399Z,10.13
2019-05-01T18:23:21.924Z,10.70
2019-05-01T18:24:58.463Z,9.78
2019-05-01T18:26:28.469Z,10.28
2019-05-01T18:28:01.112Z,9.70
2019-05-01T18:29:35.496Z,9.13
2019-05-01T18:31:18.005Z,9.98
2019-05-01T18:32:52.476Z,10.20
2019-05-01T18:34:24.809Z,9.35
2019-05-01T18:35:57.214Z,8.93
2019-05-01T18:37:31.212Z,9.70
2019-05-01T18:39:15.771Z,9.60
2019-05-01T18:40:39.216Z,9.28
2019-05-01T18:42:11.686Z,9.33
2019-05-01T18:43:47.072Z,9.93
2019-05-01T18:45:24.587Z,10.18
2019-05-01T18:46:54.187Z,11.08
2019-05-01T18:48:26.988Z,10.00
2019-05-01T18:49:59.420Z,10.55
2019-05-01T18:51:36.150Z,10.10
2019-05-01T18:53:06.753Z,10.23
2019-05-01T18:54:40.718Z,9.65
2019-05-01T18:56:13.178Z,11.20
2019-05-01T18:57:49.491Z,10.35
2019-05-01T18:59:21.995Z,11.33
2019-05-01T19:00:54.528Z,11.40
2019-05-01T19:02:27.015Z,10.38
2019-05-01T19:03:59.509Z,11.25
2019-05-01T19:05:31.947Z,10.55
2019-05-01T19:07:10.196Z,10.28
2019-05-01T19:08:42.627Z,10.40
2019-05-01T19:10:15.143Z,11.75
2019-05-01T19:11:47.640Z,10.78
2019-05-01T19:13:20.083Z,12.20
2019-05-01T19:14:52.475Z,11.53
2019-05-01T19:16:25.117Z,11.00
2019-05-01T19:17:57.688Z,11.80
2019-05-01T19:19:32.591Z,11.73
2019-05-01T19:21:05.141Z,12.35
2019-05-01T19:22:37.584Z,11.22
2019-05-01T19:24:10.047Z,11.22
2019-05-01T19:25:42.506Z,11.15
2019-05-01T19:27:18.893Z,11.28
2019-05-01T19:28:49.451Z,11.57
2019-05-01T19:30:22.340Z,11.50
2019-05-01T19:31:56.543Z,12.25
2019-05-01T19:33:28.911Z,11.38
2019-05-01T19:35:01.788Z,11.20
2019-05-01T19:36:34.298Z,11.80
2019-05-01T19:38:06.683Z,11.80
2019-05-01T19:39:43.832Z,14.30
2019-05-01T19:41:14.370Z,19.62
2019-05-01T19:42:46.899Z,17.92
2019-05-01T19:44:20.193Z,15.07
2019-05-01T19:45:53.058Z,15.08
2019-05-01T19:47:25.489Z,13.43
2019-05-01T19:48:57.986Z,14.87
2019-05-01T19:50:30.703Z,13.25
2019-05-01T19:52:03.128Z,14.05
2019-05-01T19:53:35.541Z,14.10
2019-05-01T19:55:08.005Z,12.80
2019-05-01T19:56:40.408Z,13.53
2019-05-01T19:58:12.926Z,13.72
2019-05-01T19:59:45.449Z,12.97
2019-05-01T20:01:17.880Z,14.13
2019-05-01T20:02:54.234Z,14.00
2019-05-01T20:04:24.586Z,14.63
2019-05-01T20:05:59.469Z,15.37
2019-05-01T20:07:31.097Z,15.80
2019-05-01T20:09:03.599Z,14.30
2019-05-01T20:10:35.936Z,20.03
2019-05-01T20:12:08.420Z,19.43
2019-05-01T20:13:40.964Z,16.73
2019-05-01T20:15:13.307Z,15.30
2019-05-01T20:16:45.722Z,16.40
2019-05-01T20:18:18.152Z,16.67
2019-05-01T20:19:50.583Z,16.60
2019-05-01T20:21:22.985Z,15.27
2019-05-01T20:22:55.560Z,16.37
2019-05-01T20:24:28.319Z,17.00